Time;durP1;ratioP1;P1;durP2;ratioP2;P2;SDS_P1;SDS_P2;PMS_P1;PMS_P2;Temp;Humidity;BMP_temperature;BMP_pressure;BME280_temperature;BME280_humidity;BME280_pressure;Samples;Min_cycle;Max_cycle;Signal;HPM_P1;HPM_P2
2023/04/24 00:00:33;;;;;;;;;;;;;;;16.89;42.16;99419.78;4971482;27;98558;-67
2023/04/24 00:03:00;;;;;;;;;;;;;;;16.87;42.23;99410.38;4945808;27;98949;-68
2023/04/24 00:05:27;;;;;;;;;;;;;;;16.87;42.19;99415.81;4945511;27;98246;-68
2023/04/24 00:07:54;;;;;;;;;;;;;;;16.84;42.18;99411.84;4949012;27;98102;-67
2023/04/24 00:10:21;;;;;;;;;;;;;;;16.82;42.29;99408.66;4936699;27;97926;-68
2023/04/24 00:12:47;;;;;;;;;;;;;;;16.81;42.33;99406.25;4971630;27;98264;-66
2023/04/24 00:15:14;;;;;;;;;;;;;;;16.80;42.57;99410.91;4946458;27;98071;-68
2023/04/24 00:17:41;;;;;;;;;;;;;;;16.78;42.20;99405.03;4942067;27;98272;-66
2023/04/24 00:20:09;;;;;;;;;;;;;;;16.75;42.16;99392.06;4953684;27;99557;-66
2023/04/24 00:22:36;;;;;;;;;;;;;;;16.74;42.31;99390.50;4962889;27;98145;-66
2023/04/24 00:25:03;;;;;;;;;;;;;;;16.73;42.33;99393.50;4937267;27;98434;-67
2023/04/24 00:27:29;;;;;;;;;;;;;;;16.71;42.21;99393.84;4975858;27;98147;-68
2023/04/24 00:29:55;;;;;;;;;;;;;;;16.69;42.33;99391.44;4977892;27;99212;-68
2023/04/24 00:32:23;;;;;;;;;;;;;;;16.68;42.38;99383.63;4950068;27;98018;-68
2023/04/24 00:34:49;;;;;;;;;;;;;;;16.66;42.24;99389.41;4960218;27;99356;-67
2023/04/24 00:37:16;;;;;;;;;;;;;;;16.65;42.47;99397.88;4963247;27;98293;-66
2023/04/24 00:39:42;;;;;;;;;;;;;;;16.64;42.24;99396.31;4983760;27;98293;-68
2023/04/24 00:42:09;;;;;;;;;;;;;;;16.61;42.25;99400.47;4966392;27;98196;-66
2023/04/24 00:44:35;;;;;;;;;;;;;;;16.60;42.43;99404.34;4961736;27;99186;-68
2023/04/24 00:47:02;;;;;;;;;;;;;;;16.59;42.32;99397.31;4960660;27;98015;-68
2023/04/24 00:49:28;;;;;;;;;;;;;;;16.58;42.25;99397.63;4966076;27;100784;-68
2023/04/24 00:51:54;;;;;;;;;;;;;;;16.57;42.35;99402.28;4967576;27;98192;-67
2023/04/24 00:54:21;;;;;;;;;;;;;;;16.57;42.33;99404.19;4976312;27;99083;-67
2023/04/24 00:56:48;;;;;;;;;;;;;;;16.55;42.35;99396.38;4942466;27;98532;-66
2023/04/24 00:59:16;;;;;;;;;;;;;;;16.55;42.31;99412.69;4963665;27;98008;-66
2023/04/24 01:01:42;;;;;;;;;;;;;;;16.54;42.40;99408.38;4961161;27;97988;-67
2023/04/24 01:04:11;;;;;;;;;;;;;;;16.53;42.37;99412.22;4950451;27;98525;-68
2023/04/24 01:06:39;;;;;;;;;;;;;;;16.53;42.39;99406.00;4951519;27;98707;-68
2023/04/24 01:09:05;;;;;;;;;;;;;;;16.50;42.31;99398.50;4958575;27;100068;-68
2023/04/24 01:11:31;;;;;;;;;;;;;;;16.51;42.51;99400.09;4963040;27;98098;-68
2023/04/24 01:13:58;;;;;;;;;;;;;;;16.48;42.26;99401.56;4965855;27;98179;-68
2023/04/24 01:16:25;;;;;;;;;;;;;;;16.48;42.19;99392.59;4949103;27;97923;-68
2023/04/24 01:18:51;;;;;;;;;;;;;;;16.45;42.32;99394.84;4960110;27;98371;-67
2023/04/24 01:21:18;;;;;;;;;;;;;;;16.44;42.37;99387.81;4949323;27;99470;-66
2023/04/24 01:23:45;;;;;;;;;;;;;;;16.43;42.28;99386.22;4962731;27;98300;-66
2023/04/24 01:26:12;;;;;;;;;;;;;;;16.42;42.44;99384.63;4958043;27;99767;-67
2023/04/24 01:28:39;;;;;;;;;;;;;;;16.41;42.50;99388.47;4965715;27;98140;-67
2023/04/24 01:31:05;;;;;;;;;;;;;;;16.40;42.47;99384.16;4960621;27;98298;-68
2023/04/24 01:33:32;;;;;;;;;;;;;;;16.39;42.27;99379.06;4962504;27;97967;-68
2023/04/24 01:35:59;;;;;;;;;;;;;;;16.37;42.46;99375.88;4950679;27;98508;-66
2023/04/24 01:38:26;;;;;;;;;;;;;;;16.37;42.37;99379.38;4965177;27;99599;-67
2023/04/24 01:40:52;;;;;;;;;;;;;;;16.36;42.40;99377.81;4958085;27;98035;-68
2023/04/24 01:43:19;;;;;;;;;;;;;;;16.37;42.25;99389.47;4961747;27;98024;-68
2023/04/24 01:45:45;;;;;;;;;;;;;;;16.35;42.60;99391.75;4943141;27;98261;-66
2023/04/24 01:48:15;;;;;;;;;;;;;;;16.39;42.55;99376.34;4959657;27;98286;-68
2023/04/24 01:50:42;;;;;;;;;;;;;;;16.45;42.33;99383.16;4963876;27;98216;-68
2023/04/24 01:53:09;;;;;;;;;;;;;;;16.52;42.56;99379.94;4953562;27;98392;-67
2023/04/24 01:55:36;;;;;;;;;;;;;;;16.56;42.45;99381.63;4941042;27;98497;-68
2023/04/24 01:58:03;;;;;;;;;;;;;;;16.61;42.35;99381.44;4944269;27;98153;-68
2023/04/24 02:00:30;;;;;;;;;;;;;;;16.65;42.46;99371.47;4944029;27;98150;-68
2023/04/24 02:02:56;;;;;;;;;;;;;;;16.68;42.37;99372.75;4957675;27;99621;-68
2023/04/24 02:05:23;;;;;;;;;;;;;;;16.70;42.35;99375.91;4947534;27;98555;-68
2023/04/24 02:07:49;;;;;;;;;;;;;;;16.72;42.50;99370.16;4963692;27;98358;-67
2023/04/24 02:10:16;;;;;;;;;;;;;;;16.73;42.41;99374.44;4946733;27;97843;-68
2023/04/24 02:12:43;;;;;;;;;;;;;;;16.74;42.48;99374.16;4961602;27;98170;-68
2023/04/24 02:15:10;;;;;;;;;;;;;;;16.74;42.45;99376.88;4969856;27;99468;-66
2023/04/24 02:17:37;;;;;;;;;;;;;;;16.75;42.54;99377.69;4947448;27;99279;-68
2023/04/24 02:20:05;;;;;;;;;;;;;;;16.75;42.53;99378.47;4959201;27;99794;-67
2023/04/24 02:22:31;;;;;;;;;;;;;;;16.75;42.42;99385.84;4966914;27;98266;-68
2023/04/24 02:24:58;;;;;;;;;;;;;;;16.74;42.59;99376.06;4981609;27;98463;-66
2023/04/24 02:27:24;;;;;;;;;;;;;;;16.74;42.54;99381.50;4965739;27;98444;-68
2023/04/24 02:29:51;;;;;;;;;;;;;;;16.73;42.55;99377.19;4942454;27;99486;-68
2023/04/24 02:32:18;;;;;;;;;;;;;;;16.71;42.56;99376.72;4962847;27;98157;-66
2023/04/24 02:34:45;;;;;;;;;;;;;;;16.71;42.34;99376.72;4943795;27;98197;-68
2023/04/24 02:37:11;;;;;;;;;;;;;;;16.70;42.44;99375.91;4961549;27;98098;-67
2023/04/24 02:39:38;;;;;;;;;;;;;;;16.68;42.50;99370.81;4951233;27;98233;-67
2023/04/24 02:42:05;;;;;;;;;;;;;;;16.67;42.48;99373.88;4959024;27;97985;-66
2023/04/24 02:44:31;;;;;;;;;;;;;;;16.66;42.53;99373.09;4964070;27;99483;-67
2023/04/24 02:46:57;;;;;;;;;;;;;;;16.65;42.52;99376.91;4974084;27;98920;-67
2023/04/24 02:49:25;;;;;;;;;;;;;;;16.65;42.53;99376.13;4964700;27;98423;-67
2023/04/24 02:51:53;;;;;;;;;;;;;;;16.62;42.47;99366.72;4959483;27;98146;-68
2023/04/24 02:54:20;;;;;;;;;;;;;;;16.62;42.54;99371.34;4959840;27;98171;-66
2023/04/24 02:56:47;;;;;;;;;;;;;;;16.61;42.57;99367.03;4956966;27;100611;-66
2023/04/24 02:59:14;;;;;;;;;;;;;;;16.60;42.70;99371.69;4944759;27;98401;-68
2023/04/24 03:01:41;;;;;;;;;;;;;;;16.58;42.41;99365.78;4961437;27;98664;-68
2023/04/24 03:04:07;;;;;;;;;;;;;;;16.58;42.63;99367.69;4959364;27;98570;-66
2023/04/24 03:06:35;;;;;;;;;;;;;;;16.57;42.51;99366.13;4942220;27;98076;-66
2023/04/24 03:09:01;;;;;;;;;;;;;;;16.57;42.60;99371.56;4980270;27;97937;-67
2023/04/24 03:11:28;;;;;;;;;;;;;;;16.55;42.61;99366.47;4960329;27;98102;-68
2023/04/24 03:13:54;;;;;;;;;;;;;;;16.55;42.50;99376.53;4944467;27;97993;-66
2023/04/24 03:16:21;;;;;;;;;;;;;;;16.54;42.60;99372.22;4965265;27;97937;-69
2023/04/24 03:18:48;;;;;;;;;;;;;;;16.53;42.49;99376.84;4958734;27;98015;-69
2023/04/24 03:21:14;;;;;;;;;;;;;;;16.52;42.51;99372.56;4947858;27;98282;-68
2023/04/24 03:23:41;;;;;;;;;;;;;;;16.51;42.50;99376.41;4939414;27;99514;-67
2023/04/24 03:26:08;;;;;;;;;;;;;;;16.50;42.68;99376.72;4961142;27;98979;-67
2023/04/24 03:28:35;;;;;;;;;;;;;;;16.49;42.55;99378.66;4943151;27;98409;-68
2023/04/24 03:31:02;;;;;;;;;;;;;;;16.47;42.56;99372.78;4957428;27;98296;-68
2023/04/24 03:33:29;;;;;;;;;;;;;;;16.47;42.72;99372.78;4972595;27;98246;-67
2023/04/24 03:35:56;;;;;;;;;;;;;;;16.48;42.98;99376.28;4923963;27;98004;-69
2023/04/24 03:38:22;;;;;;;;;;;;;;;16.46;42.49;99373.88;4946265;27;101278;-67
2023/04/24 03:40:49;;;;;;;;;;;;;;;16.45;42.72;99372.28;4958382;27;98125;-68
2023/04/24 03:43:16;;;;;;;;;;;;;;;16.44;42.73;99371.50;4946274;27;98005;-68
2023/04/24 03:45:42;;;;;;;;;;;;;;;16.44;42.71;99376.94;4946735;27;98109;-69
2023/04/24 03:48:08;;;;;;;;;;;;;;;16.41;42.54;99380.31;4946071;27;98059;-67
2023/04/24 03:50:35;;;;;;;;;;;;;;;16.42;42.65;99376.47;4939322;27;97954;-67
2023/04/24 03:53:01;;;;;;;;;;;;;;;16.42;42.69;99383.81;4962192;27;98497;-68
2023/04/24 03:55:27;;;;;;;;;;;;;;;16.41;42.55;99385.75;4958913;27;102587;-68
2023/04/24 03:57:55;;;;;;;;;;;;;;;16.41;42.71;99391.19;4975287;27;98093;-66
2023/04/24 04:00:21;;;;;;;;;;;;;;;16.41;42.65;99396.63;4962964;27;98143;-68
2023/04/24 04:02:48;;;;;;;;;;;;;;;16.41;42.53;99396.63;4941623;27;99454;-67
2023/04/24 04:05:15;;;;;;;;;;;;;;;16.40;42.47;99397.78;4961964;27;98488;-69
2023/04/24 04:07:41;;;;;;;;;;;;;;;16.41;42.76;99404.78;4962549;27;97987;-69
2023/04/24 04:10:07;;;;;;;;;;;;;;;16.40;42.42;99405.94;4975258;27;98089;-69
2023/04/24 04:12:34;;;;;;;;;;;;;;;16.39;42.67;99407.06;4959116;27;98596;-69
2023/04/24 04:15:01;;;;;;;;;;;;;;;16.41;42.49;99410.22;4944640;27;97955;-69
2023/04/24 04:17:27;;;;;;;;;;;;;;;16.42;42.55;99405.59;4956825;27;97952;-67
2023/04/24 04:19:53;;;;;;;;;;;;;;;16.43;42.63;99408.00;4961282;27;98989;-66
2023/04/24 04:22:20;;;;;;;;;;;;;;;16.44;42.42;99412.28;4947324;27;98191;-69
2023/04/24 04:24:46;;;;;;;;;;;;;;;16.47;42.56;99416.28;4946192;27;98215;-68
2023/04/24 04:27:12;;;;;;;;;;;;;;;16.50;42.57;99420.25;4960182;27;98129;-67
2023/04/24 04:29:39;;;;;;;;;;;;;;;16.51;42.46;99414.50;4972460;27;98458;-69
2023/04/24 04:32:06;;;;;;;;;;;;;;;16.53;42.37;99419.59;4961749;27;98381;-67
2023/04/24 04:34:33;;;;;;;;;;;;;;;16.56;42.31;99418.94;4942692;27;99008;-69
2023/04/24 04:37:01;;;;;;;;;;;;;;;16.61;42.39;99413.28;4961379;27;98052;-68
2023/04/24 04:39:28;;;;;;;;;;;;;;;16.66;42.25;99421.22;4955091;27;98784;-67
2023/04/24 04:41:54;;;;;;;;;;;;;;;16.71;42.28;99412.88;4942307;27;98174;-69
2023/04/24 04:44:21;;;;;;;;;;;;;;;16.75;42.33;99419.28;4956731;27;99831;-69
2023/04/24 04:46:47;;;;;;;;;;;;;;;16.77;42.15;99417.00;4956937;27;98118;-69
2023/04/24 04:49:16;;;;;;;;;;;;;;;16.79;42.17;99420.22;4957342;27;98062;-67
2023/04/24 04:51:42;;;;;;;;;;;;;;;16.81;42.35;99425.31;4955554;27;99277;-67
2023/04/24 04:54:09;;;;;;;;;;;;;;;16.83;42.30;99423.84;4958388;27;98225;-69
2023/04/24 04:56:36;;;;;;;;;;;;;;;16.86;42.34;99427.84;4940885;27;98143;-69
2023/04/24 04:59:02;;;;;;;;;;;;;;;16.88;42.36;99425.56;4941697;27;98448;-69
2023/04/24 05:01:29;;;;;;;;;;;;;;;16.89;42.29;99422.50;4949458;27;98026;-67
2023/04/24 05:03:56;;;;;;;;;;;;;;;16.93;42.40;99423.44;4958528;27;98166;-69
2023/04/24 05:06:23;;;;;;;;;;;;;;;16.98;42.33;99429.78;4958341;27;98137;-69
2023/04/24 05:08:50;;;;;;;;;;;;;;;17.01;42.11;99429.91;4942022;27;99658;-69
2023/04/24 05:11:17;;;;;;;;;;;;;;;17.06;42.30;99432.44;4956054;27;99610;-70
2023/04/24 05:13:43;;;;;;;;;;;;;;;17.13;42.19;99434.59;4952873;27;99904;-69
2023/04/24 05:16:10;;;;;;;;;;;;;;;17.21;42.07;99436.44;4940018;27;98150;-67
2023/04/24 05:18:36;;;;;;;;;;;;;;;17.29;41.92;99435.59;4945732;27;98233;-67
2023/04/24 05:21:03;;;;;;;;;;;;;;;17.37;42.02;99434.69;4963699;27;98200;-67
2023/04/24 05:23:29;;;;;;;;;;;;;;;17.46;41.77;99439.25;4946747;27;99907;-67
2023/04/24 05:25:56;;;;;;;;;;;;;;;17.54;41.84;99438.34;4962123;27;97879;-67
2023/04/24 05:28:23;;;;;;;;;;;;;;;17.62;41.74;99440.19;4967173;27;98149;-67
2023/04/24 05:30:49;;;;;;;;;;;;;;;17.70;41.89;99441.22;4959808;27;97840;-67
2023/04/24 05:33:15;;;;;;;;;;;;;;;17.76;41.91;99443.38;4947296;27;98577;-69
2023/04/24 05:35:46;;;;;;;;;;;;;;;17.82;41.78;99447.50;4947428;27;98204;-67
2023/04/24 05:38:12;;;;;;;;;;;;;;;17.88;41.73;99448.06;4967960;27;98113;-70
2023/04/24 05:40:39;;;;;;;;;;;;;;;17.95;41.78;99442.84;4944084;27;98171;-69
2023/04/24 05:43:06;;;;;;;;;;;;;;;18.01;41.67;99438.75;4948499;27;98009;-67
2023/04/24 05:45:35;;;;;;;;;;;;;;;18.08;41.75;99452.63;4963547;27;98065;-67
2023/04/24 05:48:02;;;;;;;;;;;;;;;18.13;41.79;99449.66;4967657;27;98640;-67
2023/04/24 05:50:29;;;;;;;;;;;;;;;18.21;41.67;99447.16;4947679;27;98014;-68
2023/04/24 05:52:57;;;;;;;;;;;;;;;18.29;41.57;99444.28;4962318;27;98740;-69
2023/04/24 05:55:25;;;;;;;;;;;;;;;18.37;41.65;99443.38;4953205;27;98104;-67
2023/04/24 05:57:52;;;;;;;;;;;;;;;18.47;41.74;99436.66;4961369;27;97994;-69
2023/04/24 06:00:22;;;;;;;;;;;;;;;18.53;41.39;99438.00;4951525;27;98171;-69
2023/04/24 06:02:48;;;;;;;;;;;;;;;18.61;41.47;99437.06;4962559;27;98014;-69
2023/04/24 06:05:14;;;;;;;;;;;;;;;18.69;41.41;99440.78;4948841;27;98212;-69
2023/04/24 06:07:41;;;;;;;;;;;;;;;18.78;41.43;99438.72;4958244;27;100072;-67
2023/04/24 06:10:08;;;;;;;;;;;;;;;18.87;41.60;99444.88;4959049;27;98127;-69
2023/04/24 06:12:35;;;;;;;;;;;;;;;18.97;41.52;99440.03;4961959;27;98133;-69
2023/04/24 06:15:02;;;;;;;;;;;;;;;19.08;41.26;99441.13;4960535;27;98335;-69
2023/04/24 06:17:28;;;;;;;;;;;;;;;19.18;41.24;99445.28;4965539;27;98174;-69
2023/04/24 06:19:55;;;;;;;;;;;;;;;19.26;41.33;99444.34;4957062;27;98487;-67
2023/04/24 06:22:21;;;;;;;;;;;;;;;19.40;41.28;99450.19;4959444;27;98090;-70
2023/04/24 06:24:48;;;;;;;;;;;;;;;19.57;40.96;99449.03;4941631;27;98025;-70
2023/04/24 06:27:14;;;;;;;;;;;;;;;19.75;40.93;99444.06;4941024;27;98174;-69
2023/04/24 06:29:41;;;;;;;;;;;;;;;19.95;40.81;99448.47;4948982;27;98153;-69
2023/04/24 06:32:08;;;;;;;;;;;;;;;20.16;40.75;99450.91;4974494;27;99015;-68
2023/04/24 06:34:35;;;;;;;;;;;;;;;20.26;40.79;99444.88;4970874;27;98350;-70
2023/04/24 06:37:01;;;;;;;;;;;;;;;20.31;40.78;99452.81;4960095;27;98502;-68
2023/04/24 06:39:28;;;;;;;;;;;;;;;20.34;40.95;99451.31;4956169;27;100461;-68
2023/04/24 06:41:54;;;;;;;;;;;;;;;20.36;40.99;99443.56;4947332;27;98945;-68
2023/04/24 06:44:20;;;;;;;;;;;;;;;20.44;40.93;99452.72;4946477;27;99242;-68
2023/04/24 06:46:46;;;;;;;;;;;;;;;20.50;41.09;99452.09;4949694;27;99033;-69
2023/04/24 06:49:15;;;;;;;;;;;;;;;20.57;40.94;99451.44;4964036;27;99892;-70
2023/04/24 06:51:42;;;;;;;;;;;;;;;20.63;40.98;99451.94;4949758;27;97914;-69
2023/04/24 06:54:08;;;;;;;;;;;;;;;20.97;40.66;99451.09;4944569;27;98062;-69
2023/04/24 06:56:34;;;;;;;;;;;;;;;21.31;40.38;99441.19;4941876;27;98092;-69
2023/04/24 06:59:01;;;;;;;;;;;;;;;21.61;40.26;99437.81;4955590;27;99697;-69
2023/04/24 07:01:28;;;;;;;;;;;;;;;21.86;40.14;99442.94;4942699;27;99043;-68
2023/04/24 07:03:55;;;;;;;;;;;;;;;22.26;39.78;99445.13;4965348;27;98196;-68
2023/04/24 07:06:22;;;;;;;;;;;;;;;22.76;39.60;99448.56;4965501;27;97921;-69
2023/04/24 07:08:48;;;;;;;;;;;;;;;23.11;39.56;99459.22;4962871;27;98369;-71
2023/04/24 07:11:15;;;;;;;;;;;;;;;23.66;39.18;99451.16;4947373;27;97926;-69
2023/04/24 07:13:42;;;;;;;;;;;;;;;24.07;39.10;99456.56;4964688;27;97895;-70
2023/04/24 07:16:09;;;;;;;;;;;;;;;24.69;38.70;99448.31;4948118;27;98142;-69
2023/04/24 07:18:36;;;;;;;;;;;;;;;24.92;38.70;99455.50;4975191;27;98714;-70
2023/04/24 07:21:02;;;;;;;;;;;;;;;24.95;38.82;99449.97;4948990;27;102293;-69
2023/04/24 07:23:29;;;;;;;;;;;;;;;25.44;38.53;99454.09;4975375;27;98299;-69
2023/04/24 07:25:55;;;;;;;;;;;;;;;25.69;38.41;99445.81;4961378;27;99462;-69
2023/04/24 07:28:23;;;;;;;;;;;;;;;26.07;38.51;99450.97;4961502;27;98087;-70
2023/04/24 07:30:49;;;;;;;;;;;;;;;26.65;37.88;99447.72;4959958;27;98143;-69
2023/04/24 07:33:15;;;;;;;;;;;;;;;26.98;37.67;99447.56;4961302;27;98002;-70
2023/04/24 07:35:41;;;;;;;;;;;;;;;26.72;38.28;99446.88;4946483;27;98141;-70
2023/04/24 07:38:08;;;;;;;;;;;;;;;26.74;38.46;99447.28;4963114;27;98192;-69
2023/04/24 07:40:34;;;;;;;;;;;;;;;27.26;37.77;99443.91;4945021;27;98263;-70
2023/04/24 07:43:01;;;;;;;;;;;;;;;27.86;37.20;99440.72;4964271;27;99256;-70
2023/04/24 07:45:28;;;;;;;;;;;;;;;28.30;37.34;99436.34;4947210;27;98281;-71
2023/04/24 07:47:54;;;;;;;;;;;;;;;28.02;37.56;99451.25;4941544;27;98356;-71
2023/04/24 07:50:20;;;;;;;;;;;;;;;29.00;36.44;99444.25;4961161;27;98045;-70
2023/04/24 07:52:46;;;;;;;;;;;;;;;29.63;36.34;99449.31;4958770;27;97963;-70
2023/04/24 07:55:13;;;;;;;;;;;;;;;30.21;36.20;99449.94;4947296;27;97927;-71
2023/04/24 07:57:39;;;;;;;;;;;;;;;30.55;36.19;99455.25;4958865;27;98186;-72
2023/04/24 08:00:07;;;;;;;;;;;;;;;30.58;36.35;99453.63;4962866;27;99313;-72
2023/04/24 08:02:34;;;;;;;;;;;;;;;29.86;37.17;99447.75;4957094;27;98164;-73
2023/04/24 08:05:00;;;;;;;;;;;;;;;29.45;38.05;99440.47;4960245;27;98119;-71
2023/04/24 08:07:29;;;;;;;;;;;;;;;29.13;38.11;99444.50;4963231;27;99989;-77
2023/04/24 08:09:55;;;;;;;;;;;;;;;29.03;38.21;99440.66;4945929;27;98511;-78
2023/04/24 08:12:22;;;;;;;;;;;;;;;28.98;38.41;99449.44;4960815;27;97947;-71
2023/04/24 08:14:53;;;;;;;;;;;;;;;29.14;38.00;99445.28;4944961;27;98475;-77
2023/04/24 08:17:20;;;;;;;;;;;;;;;29.26;38.14;99444.72;4944801;27;98086;-71
2023/04/24 08:19:51;;;;;;;;;;;;;;;29.62;37.51;99456.06;4962213;27;101848;-71
2023/04/24 08:22:17;;;;;;;;;;;;;;;30.28;36.92;99465.69;4959572;27;97892;-71
2023/04/24 08:24:43;;;;;;;;;;;;;;;31.05;36.68;99459.03;4965179;27;97969;-72
2023/04/24 08:27:10;;;;;;;;;;;;;;;31.19;36.69;99452.38;4939071;27;98319;-71
2023/04/24 08:29:39;;;;;;;;;;;;;;;30.87;37.25;99456.63;4959017;27;98015;-78
2023/04/24 08:32:06;;;;;;;;;;;;;;;30.46;37.89;99455.06;4944607;27;98267;-71
2023/04/24 08:34:33;;;;;;;;;;;;;;;31.57;36.72;99458.28;4955328;27;98664;-72
2023/04/24 08:36:59;;;;;;;;;;;;;;;32.22;36.57;99465.81;4946756;27;97930;-72
2023/04/24 08:39:27;;;;;;;;;;;;;;;32.23;36.91;99464.63;4946129;27;98037;-78
2023/04/24 08:41:55;;;;;;;;;;;;;;;31.70;37.48;99459.13;4941941;27;99606;-77
2023/04/24 08:44:23;;;;;;;;;;;;;;;31.18;38.09;99457.16;4957582;27;98103;-71
2023/04/24 08:46:50;;;;;;;;;;;;;;;30.85;38.48;99456.28;4955800;27;98106;-71
2023/04/24 08:49:17;;;;;;;;;;;;;;;30.57;38.78;99463.94;4973576;27;98380;-71
2023/04/24 08:51:43;;;;;;;;;;;;;;;30.42;38.70;99459.88;4968081;27;98166;-71
2023/04/24 08:54:12;;;;;;;;;;;;;;;30.07;38.90;99464.84;4964009;27;97894;-78
2023/04/24 08:56:39;;;;;;;;;;;;;;;29.89;38.83;99466.38;4950255;27;98192;-78
2023/04/24 08:59:06;;;;;;;;;;;;;;;29.65;39.42;99465.56;4959492;27;99936;-77
2023/04/24 09:01:33;;;;;;;;;;;;;;;29.44;39.31;99470.22;4965972;27;98094;-71
2023/04/24 09:04:03;;;;;;;;;;;;;;;29.18;39.42;99468.19;4938922;27;98392;-77
2023/04/24 09:06:32;;;;;;;;;;;;;;;29.02;39.80;99466.03;4973163;27;98283;-78
2023/04/24 09:09:03;;;;;;;;;;;;;;;28.80;39.51;99465.47;4962868;27;98276;-77
2023/04/24 09:11:31;;;;;;;;;;;;;;;28.68;39.55;99457.72;4947607;27;98239;-78
2023/04/24 09:13:58;;;;;;;;;;;;;;;28.81;39.58;99456.78;4963091;27;98370;-71
2023/04/24 09:16:25;;;;;;;;;;;;;;;28.75;39.31;99457.63;4943819;27;97860;-75
2023/04/24 09:18:52;;;;;;;;;;;;;;;28.43;39.62;99456.00;4966492;27;98103;-71
2023/04/24 09:21:19;;;;;;;;;;;;;;;28.16;40.21;99453.09;4964462;27;98355;-71
2023/04/24 09:23:47;;;;;;;;;;;;;;;28.23;39.72;99455.00;4962048;27;98403;-73
2023/04/24 09:26:14;;;;;;;;;;;;;;;28.01;40.04;99460.75;4959085;27;98200;-71
2023/04/24 09:28:41;;;;;;;;;;;;;;;28.02;40.17;99458.75;4940237;27;97828;-77
2023/04/24 09:31:15;;;;;;;;;;;;;;;28.10;39.96;99452.75;4965240;27;98249;-77
2023/04/24 09:34:03;;;;;;;;;;;;;;;28.92;38.73;99461.38;4980063;27;98069;-71
2023/04/24 09:36:40;;;;;;;;;;;;;;;29.14;38.49;99454.38;4961067;27;98368;-71
2023/04/24 09:39:11;;;;;;;;;;;;;;;29.05;39.14;99465.22;4963671;27;98100;-71
2023/04/24 09:41:45;;;;;;;;;;;;;;;28.97;39.21;99460.94;4980596;27;98182;-78
2023/04/24 09:44:24;;;;;;;;;;;;;;;28.86;39.44;99455.53;4947957;27;98116;-77
2023/04/24 09:46:56;;;;;;;;;;;;;;;28.59;39.46;99456.22;4966231;27;98276;-77
2023/04/24 09:49:25;;;;;;;;;;;;;;;28.37;39.74;99461.22;4949922;27;98129;-77
2023/04/24 09:51:52;;;;;;;;;;;;;;;28.20;40.02;99459.38;4973347;27;98404;-71
2023/04/24 09:54:22;;;;;;;;;;;;;;;28.04;40.11;99454.38;4960594;27;98175;-77
2023/04/24 09:56:49;;;;;;;;;;;;;;;27.91;39.77;99460.84;4965958;27;98253;-77
2023/04/24 09:59:19;;;;;;;;;;;;;;;27.62;40.30;99453.50;4964551;27;97974;-71
2023/04/24 10:01:48;;;;;;;;;;;;;;;27.33;40.47;99449.38;4949698;27;98131;-77
2023/04/24 10:04:18;;;;;;;;;;;;;;;27.09;40.72;99460.16;4959691;27;97914;-71
2023/04/24 10:06:45;;;;;;;;;;;;;;;26.91;40.80;99442.88;4942987;27;98182;-77
2023/04/24 10:09:13;;;;;;;;;;;;;;;26.77;40.59;99445.72;4958555;27;98212;-77
2023/04/24 10:11:43;;;;;;;;;;;;;;;26.69;40.73;99450.47;4976553;27;98515;-77
2023/04/24 10:14:13;;;;;;;;;;;;;;;26.73;40.64;99456.78;4942311;27;99018;-70
2023/04/24 10:16:40;;;;;;;;;;;;;;;27.17;39.95;99460.94;4948246;27;98114;-71
2023/04/24 10:19:07;;;;;;;;;;;;;;;27.96;39.13;99463.97;4981429;27;98525;-77
2023/04/24 10:21:34;;;;;;;;;;;;;;;28.61;38.56;99456.63;4941416;27;98098;-71
2023/04/24 10:24:03;;;;;;;;;;;;;;;29.48;37.76;99457.06;4964305;27;98131;-71
2023/04/24 10:26:29;;;;;;;;;;;;;;;31.04;36.42;99460.25;4960079;27;99594;-70
2023/04/24 10:28:57;;;;;;;;;;;;;;;32.80;35.03;99465.84;4948662;27;98237;-77
2023/04/24 10:31:24;;;;;;;;;;;;;;;32.31;36.42;99465.22;4944008;27;98061;-71
2023/04/24 10:33:51;;;;;;;;;;;;;;;32.88;36.19;99458.03;4958358;27;98202;-71
2023/04/24 10:36:18;;;;;;;;;;;;;;;32.61;36.32;99464.00;4947229;27;98315;-78
2023/04/24 10:38:45;;;;;;;;;;;;;;;31.86;37.54;99465.97;4962729;27;98069;-71
2023/04/24 10:41:19;;;;;;;;;;;;;;;31.59;37.98;99457.84;4959596;27;98059;-78
2023/04/24 10:43:48;;;;;;;;;;;;;;;31.19;38.50;99461.50;4964235;27;98259;-71
2023/04/24 10:46:19;;;;;;;;;;;;;;;31.27;38.17;99456.56;4960422;27;98310;-71
2023/04/24 10:48:52;;;;;;;;;;;;;;;31.49;38.16;99451.31;4948614;27;99737;-78
2023/04/24 10:51:20;;;;;;;;;;;;;;;31.69;37.97;99446.44;4964298;27;98227;-78
2023/04/24 10:53:47;;;;;;;;;;;;;;;31.70;37.83;99452.78;4959087;27;98727;-78
2023/04/24 10:56:16;;;;;;;;;;;;;;;31.93;37.98;99452.63;4957054;27;97893;-71
2023/04/24 10:58:49;;;;;;;;;;;;;;;31.78;37.82;99448.59;4963789;27;104981;-78
2023/04/24 11:01:30;;;;;;;;;;;;;;;31.87;37.92;99450.81;4963811;27;98228;-71
2023/04/24 11:03:58;;;;;;;;;;;;;;;31.48;38.37;99452.50;4970813;27;97922;-71
2023/04/24 11:06:34;;;;;;;;;;;;;;;31.17;38.79;99446.47;4960789;27;98519;-78
2023/04/24 11:09:07;;;;;;;;;;;;;;;31.52;38.27;99442.09;4968403;27;116571;-71
2023/04/24 11:11:34;;;;;;;;;;;;;;;31.74;38.00;99447.91;4943400;27;99231;-78
2023/04/24 11:14:01;;;;;;;;;;;;;;;32.69;37.32;99448.63;4959701;27;97959;-72
2023/04/24 11:16:30;;;;;;;;;;;;;;;34.09;35.76;99445.09;4957434;27;99197;-71
2023/04/24 11:19:02;;;;;;;;;;;;;;;33.49;36.73;99440.28;4963737;27;98455;-78
2023/04/24 11:21:57;;;;;;;;;;;;;;;32.61;37.87;99438.91;4989508;27;98841;-72
2023/04/24 11:24:32;;;;;;;;;;;;;;;31.90;39.05;99436.00;4985517;27;98184;-71
2023/04/24 11:27:07;;;;;;;;;;;;;;;31.71;39.16;99438.41;4991578;27;98263;-78
2023/04/24 11:29:55;;;;;;;;;;;;;;;32.13;38.57;99435.78;4987430;27;98026;-72
2023/04/24 11:32:38;;;;;;;;;;;;;;;32.48;37.71;99441.66;4989214;27;97877;-78
2023/04/24 11:35:17;;;;;;;;;;;;;;;32.05;38.43;99444.78;4979272;27;98492;-72
2023/04/24 11:37:48;;;;;;;;;;;;;;;31.53;39.16;99440.88;4953906;27;99758;-71
2023/04/24 11:40:17;;;;;;;;;;;;;;;31.37;39.16;99438.88;4962990;27;98439;-77
2023/04/24 11:42:44;;;;;;;;;;;;;;;31.47;38.90;99443.38;4962675;27;97902;-78
2023/04/24 11:45:15;;;;;;;;;;;;;;;31.21;39.01;99442.38;4947700;27;98545;-71
2023/04/24 11:47:42;;;;;;;;;;;;;;;30.69;39.84;99436.72;4956246;27;99444;-77
2023/04/24 11:50:10;;;;;;;;;;;;;;;30.16;40.59;99447.66;4959496;27;100154;-71
2023/04/24 11:52:41;;;;;;;;;;;;;;;29.67;40.50;99444.50;4963929;27;99887;-71
2023/04/24 11:55:25;;;;;;;;;;;;;;;29.19;40.86;99451.13;4945174;27;98593;-71
2023/04/24 11:57:57;;;;;;;;;;;;;;;28.81;41.03;99442.13;4975896;27;97891;-77
2023/04/24 12:00:24;;;;;;;;;;;;;;;28.90;40.56;99445.16;4948376;27;98030;-77
2023/04/24 12:02:51;;;;;;;;;;;;;;;28.79;40.88;99442.53;4959376;27;98470;-76
2023/04/24 12:05:23;;;;;;;;;;;;;;;28.68;40.60;99449.41;4947092;27;98236;-77
2023/04/24 12:07:50;;;;;;;;;;;;;;;28.42;40.66;99454.44;4964063;27;98206;-77
2023/04/24 12:10:27;;;;;;;;;;;;;;;28.18;41.28;99447.13;4948014;27;98237;-77
2023/04/24 12:12:55;;;;;;;;;;;;;;;27.76;41.43;99451.88;4961249;27;97928;-71
2023/04/24 12:15:21;;;;;;;;;;;;;;;27.32;41.87;99451.38;4964857;27;98291;-71
2023/04/24 12:17:48;;;;;;;;;;;;;;;26.93;41.98;99471.69;4962859;27;97999;-70
2023/04/24 12:20:14;;;;;;;;;;;;;;;26.58;42.09;99463.53;4941232;27;98538;-71
2023/04/24 12:22:47;;;;;;;;;;;;;;;26.27;42.26;99470.69;4959485;27;98217;-69
2023/04/24 12:25:17;;;;;;;;;;;;;;;25.96;42.21;99462.03;4990014;27;98362;-72
2023/04/24 12:27:51;;;;;;;;;;;;;;;25.74;42.19;99461.19;4950553;27;98027;-69
2023/04/24 12:30:18;;;;;;;;;;;;;;;25.59;42.09;99465.16;4983745;27;98221;-72
2023/04/24 12:32:47;;;;;;;;;;;;;;;25.56;42.04;99452.91;4966253;27;98243;-73
2023/04/24 12:35:24;;;;;;;;;;;;;;;26.07;41.11;99449.00;4963572;27;98381;-69
2023/04/24 12:37:50;;;;;;;;;;;;;;;27.09;40.08;99460.16;4951933;27;99158;-70
2023/04/24 12:40:17;;;;;;;;;;;;;;;28.44;38.39;99454.03;4963851;27;99557;-70
2023/04/24 12:42:45;;;;;;;;;;;;;;;28.07;39.54;99461.09;4942497;27;98471;-70
2023/04/24 12:45:12;;;;;;;;;;;;;;;28.49;39.18;99439.72;4962426;27;98466;-70
2023/04/24 12:47:39;;;;;;;;;;;;;;;27.95;40.07;99442.22;4961484;27;98103;-70